Time;durP1;ratioP1;P1;durP2;ratioP2;P2;SDS_P1;SDS_P2;PMS_P1;PMS_P2;Temp;Humidity;BMP_temperature;BMP_pressure;BME280_temperature;BME280_humidity;BME280_pressure;Samples;Min_cycle;Max_cycle;Signal;HPM_P1;HPM_P2
2021/12/09 00:00:11;;;;;;;11.88;3.90;;;;;;;;;;5016637;28;20137;-79
2021/12/09 00:02:37;;;;;;;6.63;3.15;;;;;;;;;;5012506;28;20100;-80
2021/12/09 00:05:04;;;;;;;9.48;4.45;;;;;;;;;;5020115;28;20033;-79
2021/12/09 00:07:30;;;;;;;11.18;3.83;;;;;;;;;;5013408;28;20400;-79
2021/12/09 00:09:56;;;;;;;9.68;4.30;;;;;;;;;;5017969;28;20017;-80
2021/12/09 00:12:22;;;;;;;11.18;4.10;;;;;;;;;;5009552;28;20041;-79
2021/12/09 00:14:48;;;;;;;7.88;3.58;;;;;;;;;;5015822;28;20060;-80
2021/12/09 00:17:14;;;;;;;7.93;3.83;;;;;;;;;;5012335;28;20087;-81
2021/12/09 00:19:40;;;;;;;8.55;4.00;;;;;;;;;;5011221;28;20053;-78
2021/12/09 00:22:11;;;;;;;8.23;3.55;;;;;;;;;;5008442;28;20517;-78
2021/12/09 00:24:36;;;;;;;10.27;4.15;;;;;;;;;;5012389;28;20109;-80
2021/12/09 00:27:02;;;;;;;7.90;4.22;;;;;;;;;;5010868;28;20465;-80
2021/12/09 00:29:27;;;;;;;6.05;3.50;;;;;;;;;;5013665;28;20401;-81
2021/12/09 00:31:53;;;;;;;9.93;3.78;;;;;;;;;;5012792;28;20045;-79
2021/12/09 00:34:21;;;;;;;8.80;4.68;;;;;;;;;;5006163;28;20065;-81
2021/12/09 00:37:04;;;;;;;7.57;4.80;;;;;;;;;;5027473;28;20279;-81
2021/12/09 00:39:29;;;;;;;13.30;5.13;;;;;;;;;;5014255;28;20094;-80
2021/12/09 00:41:55;;;;;;;13.38;4.60;;;;;;;;;;5021092;28;20049;-82
2021/12/09 00:44:20;;;;;;;9.45;4.15;;;;;;;;;;5021303;28;20034;-80
2021/12/09 00:46:46;;;;;;;9.98;4.82;;;;;;;;;;5013645;28;20038;-79
2021/12/09 00:49:11;;;;;;;7.88;4.07;;;;;;;;;;5012959;28;20445;-81
2021/12/09 00:51:37;;;;;;;9.98;4.30;;;;;;;;;;5007104;28;20480;-81
2021/12/09 00:54:05;;;;;;;9.25;5.15;;;;;;;;;;5007534;28;20052;-82
2021/12/09 00:56:31;;;;;;;7.93;4.35;;;;;;;;;;5010979;28;20462;-81
2021/12/09 00:58:57;;;;;;;7.45;4.40;;;;;;;;;;5013132;28;20113;-80
2021/12/09 01:01:23;;;;;;;7.13;3.90;;;;;;;;;;5006544;28;20026;-80
2021/12/09 01:03:48;;;;;;;9.48;4.38;;;;;;;;;;5011825;28;20057;-80
2021/12/09 01:06:14;;;;;;;8.02;4.40;;;;;;;;;;5008133;28;20123;-81
2021/12/09 01:08:41;;;;;;;8.65;4.82;;;;;;;;;;5011926;28;20084;-81
2021/12/09 01:11:07;;;;;;;10.10;4.68;;;;;;;;;;5006256;28;20043;-81
2021/12/09 01:13:33;;;;;;;9.07;4.45;;;;;;;;;;5011766;28;20032;-80
2021/12/09 01:15:59;;;;;;;8.27;4.90;;;;;;;;;;5013906;28;20038;-79
2021/12/09 01:18:24;;;;;;;8.93;4.70;;;;;;;;;;5009952;28;20061;-81
2021/12/09 01:20:51;;;;;;;8.10;5.03;;;;;;;;;;5009834;28;20219;-80
2021/12/09 01:23:16;;;;;;;10.60;4.97;;;;;;;;;;5010262;28;20448;-81
2021/12/09 01:25:43;;;;;;;9.90;5.13;;;;;;;;;;5004571;28;20025;-80
2021/12/09 01:28:18;;;;;;;7.38;4.45;;;;;;;;;;5009515;28;20050;-81
2021/12/09 01:30:45;;;;;;;6.68;4.50;;;;;;;;;;5007584;28;20033;-80
2021/12/09 01:33:11;;;;;;;8.23;4.78;;;;;;;;;;5011631;28;20030;-81
2021/12/09 01:35:37;;;;;;;8.27;3.60;;;;;;;;;;5010157;28;20107;-80
2021/12/09 01:38:11;;;;;;;6.65;3.55;;;;;;;;;;5010249;28;20423;-80
2021/12/09 01:40:37;;;;;;;6.88;3.33;;;;;;;;;;5010257;28;20021;-81
2021/12/09 01:43:03;;;;;;;5.53;2.83;;;;;;;;;;5008465;28;20430;-81
2021/12/09 01:45:29;;;;;;;5.55;3.10;;;;;;;;;;5010978;28;20095;-81
2021/12/09 01:47:54;;;;;;;5.28;2.63;;;;;;;;;;5009891;28;20029;-80
2021/12/09 01:50:21;;;;;;;4.82;2.90;;;;;;;;;;5009889;28;20038;-81
2021/12/09 01:52:47;;;;;;;5.15;2.55;;;;;;;;;;5011471;28;20026;-81
2021/12/09 01:55:15;;;;;;;3.50;2.70;;;;;;;;;;5008452;28;20429;-80
2021/12/09 01:57:41;;;;;;;4.82;2.85;;;;;;;;;;5008559;28;20025;-81
2021/12/09 02:00:11;;;;;;;4.10;2.92;;;;;;;;;;5009311;28;20061;-81
2021/12/09 02:02:41;;;;;;;5.97;3.03;;;;;;;;;;5009723;28;20414;-82
2021/12/09 02:05:08;;;;;;;4.22;2.97;;;;;;;;;;5005693;28;20524;-83
2021/12/09 02:07:35;;;;;;;4.78;2.55;;;;;;;;;;5005058;28;20366;-82
2021/12/09 02:10:06;;;;;;;7.35;3.03;;;;;;;;;;5015318;28;20054;-81
2021/12/09 02:12:31;;;;;;;4.53;2.40;;;;;;;;;;5013528;28;20056;-81
2021/12/09 02:14:59;;;;;;;4.75;2.58;;;;;;;;;;5011472;28;20116;-82
2021/12/09 02:17:32;;;;;;;4.28;2.10;;;;;;;;;;5008837;28;20163;-83
2021/12/09 02:19:59;;;;;;;2.78;1.88;;;;;;;;;;5006650;28;20033;-82
2021/12/09 02:22:27;;;;;;;2.83;1.88;;;;;;;;;;5007124;28;20025;-83
2021/12/09 02:24:57;;;;;;;2.92;1.90;;;;;;;;;;5004581;28;20053;-82
2021/12/09 02:27:24;;;;;;;2.53;1.85;;;;;;;;;;5007592;28;20105;-83
2021/12/09 02:29:52;;;;;;;3.70;1.77;;;;;;;;;;5027308;28;20037;-83
2021/12/09 02:32:19;;;;;;;3.42;2.15;;;;;;;;;;5008924;28;20366;-82
2021/12/09 02:34:45;;;;;;;3.15;2.05;;;;;;;;;;5007826;28;20030;-82
2021/12/09 02:37:13;;;;;;;2.75;1.58;;;;;;;;;;5009226;28;20030;-82
2021/12/09 02:39:41;;;;;;;4.38;2.25;;;;;;;;;;5006386;28;20030;-83
2021/12/09 02:42:10;;;;;;;3.65;2.35;;;;;;;;;;5008315;28;20022;-81
2021/12/09 02:44:36;;;;;;;7.57;2.67;;;;;;;;;;5006978;28;20029;-81
2021/12/09 02:47:02;;;;;;;2.95;2.10;;;;;;;;;;5006164;28;20026;-81
2021/12/09 02:49:29;;;;;;;3.75;2.20;;;;;;;;;;5006787;28;20030;-82
2021/12/09 02:51:56;;;;;;;4.53;2.33;;;;;;;;;;5005296;28;20030;-81
2021/12/09 02:54:23;;;;;;;5.35;2.45;;;;;;;;;;5005652;28;20501;-82
2021/12/09 02:56:54;;;;;;;4.60;2.60;;;;;;;;;;5008422;28;20034;-82
2021/12/09 02:59:20;;;;;;;5.18;2.53;;;;;;;;;;5007849;28;20112;-82
2021/12/09 03:02:07;;;;;;;5.95;2.80;;;;;;;;;;5009195;28;20566;-82
2021/12/09 03:04:47;;;;;;;7.28;3.17;;;;;;;;;;5007015;28;20559;-81
2021/12/09 03:07:23;;;;;;;12.60;5.00;;;;;;;;;;5004389;28;20115;-81
2021/12/09 03:09:53;;;;;;;10.18;4.57;;;;;;;;;;5005675;28;20488;-83
2021/12/09 03:12:20;;;;;;;;;;;;;;;;;;5008230;28;20030;-82
2021/12/09 03:14:46;;;;;;;12.77;5.32;;;;;;;;;;5008106;28;20012;-81
2021/12/09 03:17:14;;;;;;;14.48;5.07;;;;;;;;;;5010271;28;20520;-82
2021/12/09 03:19:40;;;;;;;11.25;5.35;;;;;;;;;;5006973;28;20040;-80
2021/12/09 03:22:09;;;;;;;10.73;5.25;;;;;;;;;;5011150;28;20034;-81
2021/12/09 03:24:34;;;;;;;13.60;5.13;;;;;;;;;;5001979;28;20390;-81
2021/12/09 03:27:03;;;;;;;13.38;5.60;;;;;;;;;;5006656;28;20034;-80
2021/12/09 03:29:29;;;;;;;11.05;5.95;;;;;;;;;;5006572;28;20482;-79
2021/12/09 03:31:59;;;;;;;9.77;4.80;;;;;;;;;;5006186;28;20028;-80
2021/12/09 03:34:28;;;;;;;13.23;5.65;;;;;;;;;;5008830;28;20044;-83
2021/12/09 03:36:55;;;;;;;12.05;5.20;;;;;;;;;;5008362;28;20517;-82
2021/12/09 03:39:28;;;;;;;17.38;5.30;;;;;;;;;;5013452;28;20109;-81
2021/12/09 03:41:58;;;;;;;12.15;5.00;;;;;;;;;;5014138;28;20540;-80
2021/12/09 03:44:26;;;;;;;10.07;4.55;;;;;;;;;;5010571;28;20042;-82
2021/12/09 03:46:53;;;;;;;11.85;4.88;;;;;;;;;;5012771;28;20032;-82
2021/12/09 03:49:23;;;;;;;12.30;5.95;;;;;;;;;;5010186;28;20127;-83
2021/12/09 03:51:48;;;;;;;13.80;5.25;;;;;;;;;;5011060;28;20092;-81
2021/12/09 03:54:14;;;;;;;10.50;5.20;;;;;;;;;;5010889;28;20033;-82
2021/12/09 03:56:40;;;;;;;15.43;5.85;;;;;;;;;;5013092;28;20501;-81
2021/12/09 03:59:07;;;;;;;14.43;6.38;;;;;;;;;;5007124;28;20482;-83
2021/12/09 04:01:36;;;;;;;14.23;6.32;;;;;;;;;;5007965;28;20041;-83
2021/12/09 04:04:02;;;;;;;16.23;6.35;;;;;;;;;;5007874;28;20049;-81
2021/12/09 04:06:30;;;;;;;12.18;5.72;;;;;;;;;;5014283;28;20025;-80
2021/12/09 04:08:57;;;;;;;14.30;5.78;;;;;;;;;;5008247;28;20053;-81
2021/12/09 04:11:25;;;;;;;14.10;6.53;;;;;;;;;;5013645;28;20063;-83
2021/12/09 04:13:51;;;;;;;12.93;6.03;;;;;;;;;;5007347;28;20022;-82
2021/12/09 04:16:16;;;;;;;12.15;6.47;;;;;;;;;;5010010;28;20461;-81
2021/12/09 04:18:44;;;;;;;15.38;7.38;;;;;;;;;;5011599;28;20029;-81
2021/12/09 04:21:10;;;;;;;12.98;6.60;;;;;;;;;;5011113;28;20040;-82
2021/12/09 04:23:38;;;;;;;16.98;7.05;;;;;;;;;;5011860;28;20026;-81
2021/12/09 04:26:07;;;;;;;15.80;7.35;;;;;;;;;;5008915;28;20029;-81
2021/12/09 04:28:33;;;;;;;16.83;7.25;;;;;;;;;;5008005;28;20030;-80
2021/12/09 04:31:01;;;;;;;16.05;6.57;;;;;;;;;;5010665;28;20026;-81
2021/12/09 04:33:29;;;;;;;16.25;5.55;;;;;;;;;;5011657;28;20151;-82
2021/12/09 04:35:56;;;;;;;15.00;5.72;;;;;;;;;;5026838;28;20038;-81
2021/12/09 04:38:21;;;;;;;13.38;5.72;;;;;;;;;;5018430;28;20090;-82
2021/12/09 04:40:49;;;;;;;13.70;5.20;;;;;;;;;;5021519;28;20049;-82
2021/12/09 04:43:18;;;;;;;8.98;4.90;;;;;;;;;;5019022;28;20124;-81
2021/12/09 04:45:44;;;;;;;13.15;5.25;;;;;;;;;;5025276;28;20062;-80
2021/12/09 04:48:10;;;;;;;19.05;6.30;;;;;;;;;;5024880;28;20030;-80
2021/12/09 04:50:37;;;;;;;15.55;4.85;;;;;;;;;;5031017;28;20069;-80
2021/12/09 04:53:05;;;;;;;16.65;5.60;;;;;;;;;;5036388;28;20032;-80
2021/12/09 04:55:31;;;;;;;14.50;5.07;;;;;;;;;;5034812;28;20064;-79
2021/12/09 04:57:57;;;;;;;20.05;6.10;;;;;;;;;;5036427;28;20020;-79
2021/12/09 05:00:26;;;;;;;18.13;6.53;;;;;;;;;;5034854;28;20218;-78
2021/12/09 05:05:23;;;;;;;13.88;7.32;;;;;;;;;;5035170;28;20022;-79
2021/12/09 05:07:49;;;;;;;14.15;6.35;;;;;;;;;;5035421;28;20072;-78
2021/12/09 05:10:15;;;;;;;14.43;6.40;;;;;;;;;;5035086;28;20021;-80
2021/12/09 05:12:41;;;;;;;13.40;6.57;;;;;;;;;;5030721;28;20038;-79
2021/12/09 05:15:08;;;;;;;16.35;7.45;;;;;;;;;;5031028;28;20037;-79
2021/12/09 05:17:34;;;;;;;11.32;6.00;;;;;;;;;;5022581;28;20056;-81
2021/12/09 05:19:59;;;;;;;10.25;5.57;;;;;;;;;;5009940;28;20556;-81
2021/12/09 05:22:27;;;;;;;12.80;5.38;;;;;;;;;;5005796;28;20037;-82
2021/12/09 05:24:53;;;;;;;15.55;4.45;;;;;;;;;;5010192;28;20188;-80
2021/12/09 05:27:19;;;;;;;12.15;5.32;;;;;;;;;;5010642;28;20026;-81
2021/12/09 05:29:52;;;;;;;14.77;6.95;;;;;;;;;;5012428;28;20026;-81
2021/12/09 05:32:20;;;;;;;16.33;7.15;;;;;;;;;;5011773;28;20378;-82
2021/12/09 05:34:50;;;;;;;12.63;7.15;;;;;;;;;;5006421;28;20431;-81
2021/12/09 05:37:21;;;;;;;14.20;6.95;;;;;;;;;;5009391;28;20466;-82
2021/12/09 05:39:47;;;;;;;11.13;5.63;;;;;;;;;;5007530;28;20433;-82
2021/12/09 05:42:14;;;;;;;15.60;6.45;;;;;;;;;;5011304;28;20021;-82
2021/12/09 05:44:40;;;;;;;13.75;7.18;;;;;;;;;;5005492;28;20033;-80
2021/12/09 05:47:07;;;;;;;15.93;6.93;;;;;;;;;;5006140;28;20103;-81
2021/12/09 05:49:37;;;;;;;15.35;7.07;;;;;;;;;;5006882;28;20477;-82
2021/12/09 05:52:05;;;;;;;9.35;6.07;;;;;;;;;;5010991;28;20053;-82
2021/12/09 05:54:31;;;;;;;15.68;5.55;;;;;;;;;;5004924;28;20030;-80
2021/12/09 05:56:58;;;;;;;9.45;5.38;;;;;;;;;;5008926;28;20029;-80
2021/12/09 05:59:24;;;;;;;13.63;5.38;;;;;;;;;;5010248;28;20034;-80
2021/12/09 06:01:49;;;;;;;13.98;5.68;;;;;;;;;;5011271;28;20108;-79
2021/12/09 06:04:17;;;;;;;15.05;6.15;;;;;;;;;;5009873;28;20673;-80
2021/12/09 06:06:45;;;;;;;13.63;5.20;;;;;;;;;;5009621;28;20057;-80
2021/12/09 06:09:11;;;;;;;30.35;7.95;;;;;;;;;;5011320;28;20037;-80
2021/12/09 06:11:39;;;;;;;43.00;10.52;;;;;;;;;;5015194;28;20040;-78
2021/12/09 06:14:10;;;;;;;40.65;10.98;;;;;;;;;;5005392;28;20105;-81
2021/12/09 06:16:36;;;;;;;30.17;7.80;;;;;;;;;;5009951;28;20034;-78
2021/12/09 06:19:05;;;;;;;15.43;5.30;;;;;;;;;;5007102;28;20112;-80
2021/12/09 06:21:30;;;;;;;10.85;4.97;;;;;;;;;;5010997;28;20033;-79
2021/12/09 06:24:00;;;;;;;10.02;4.50;;;;;;;;;;5009060;28;20036;-79
2021/12/09 06:26:26;;;;;;;;;;;;;;;;;;5011098;28;20268;-78
2021/12/09 06:28:52;;;;;;;10.48;4.53;;;;;;;;;;5010334;28;20332;-77
2021/12/09 06:31:18;;;;;;;12.45;5.20;;;;;;;;;;5006697;28;20065;-78
2021/12/09 06:33:43;;;;;;;14.63;6.05;;;;;;;;;;5013550;28;20040;-77
2021/12/09 06:36:09;;;;;;;14.20;6.20;;;;;;;;;;5008281;28;20049;-78
2021/12/09 06:38:39;;;;;;;16.70;5.78;;;;;;;;;;5008183;28;20038;-78
2021/12/09 06:41:08;;;;;;;11.40;4.90;;;;;;;;;;5009523;28;20424;-77
2021/12/09 06:43:37;;;;;;;13.63;4.82;;;;;;;;;;5004057;28;20029;-76
2021/12/09 06:46:05;;;;;;;7.70;4.25;;;;;;;;;;5006817;28;20501;-76
2021/12/09 06:48:31;;;;;;;8.13;4.50;;;;;;;;;;5004984;28;20069;-77
2021/12/09 06:51:01;;;;;;;10.68;4.20;;;;;;;;;;5006768;28;20132;-76
2021/12/09 06:53:27;;;;;;;9.52;3.95;;;;;;;;;;5004869;28;20030;-76
2021/12/09 06:55:58;;;;;;;13.27;4.63;;;;;;;;;;5007350;28;20425;-79
2021/12/09 06:58:25;;;;;;;12.85;4.35;;;;;;;;;;5006515;28;20048;-76
2021/12/09 07:00:51;;;;;;;9.55;4.32;;;;;;;;;;5006854;28;20068;-76
2021/12/09 07:03:21;;;;;;;11.05;4.68;;;;;;;;;;5008380;28;20104;-78
2021/12/09 07:05:48;;;;;;;;;;;;;;;;;;5006717;28;20045;-75
2021/12/09 07:08:13;;;;;;;15.25;5.85;;;;;;;;;;5002262;28;19914;-76
2021/12/09 07:10:39;;;;;;;12.38;5.32;;;;;;;;;;5010860;28;20402;-77
2021/12/09 07:13:07;;;;;;;11.57;5.70;;;;;;;;;;5011735;28;20068;-77
2021/12/09 07:15:33;;;;;;;14.18;6.20;;;;;;;;;;5013652;28;20068;-77
2021/12/09 07:17:59;;;;;;;11.45;5.40;;;;;;;;;;5006909;28;20408;-77
2021/12/09 07:20:27;;;;;;;14.70;5.35;;;;;;;;;;5010988;28;20107;-77
2021/12/09 07:22:53;;;;;;;13.10;5.93;;;;;;;;;;5006839;28;20488;-77
2021/12/09 07:25:21;;;;;;;9.88;4.80;;;;;;;;;;5009960;28;20038;-76
2021/12/09 07:27:46;;;;;;;11.57;4.50;;;;;;;;;;5009430;28;20157;-76
2021/12/09 07:30:15;;;;;;;10.38;4.60;;;;;;;;;;5007530;28;20117;-76
2021/12/09 07:32:41;;;;;;;13.98;5.72;;;;;;;;;;5009777;28;20030;-77
2021/12/09 07:35:09;;;;;;;8.88;5.13;;;;;;;;;;5026250;28;20424;-77
2021/12/09 07:37:37;;;;;;;8.13;4.43;;;;;;;;;;5010309;28;20563;-76
2021/12/09 07:40:05;;;;;;;10.23;4.05;;;;;;;;;;5011083;28;20037;-77
2021/12/09 07:42:30;;;;;;;20.65;6.68;;;;;;;;;;5008467;28;20482;-76
2021/12/09 07:44:58;;;;;;;18.58;5.18;;;;;;;;;;5008171;28;20036;-77
2021/12/09 07:47:24;;;;;;;10.02;4.55;;;;;;;;;;5007763;28;20033;-77
2021/12/09 07:49:52;;;;;;;15.68;4.88;;;;;;;;;;5006973;28;20034;-77
2021/12/09 07:52:20;;;;;;;9.68;4.85;;;;;;;;;;5015052;28;20108;-77
2021/12/09 07:54:45;;;;;;;13.40;6.22;;;;;;;;;;5010290;28;20045;-76
2021/12/09 07:57:13;;;;;;;11.75;4.53;;;;;;;;;;5010240;28;20029;-75
2021/12/09 07:59:39;;;;;;;12.80;5.32;;;;;;;;;;5008796;28;20099;-75
2021/12/09 08:02:05;;;;;;;21.77;5.93;;;;;;;;;;5009271;28;20113;-77
2021/12/09 08:04:33;;;;;;;21.73;5.85;;;;;;;;;;5008885;28;20521;-76
2021/12/09 08:07:02;;;;;;;19.30;5.00;;;;;;;;;;5007986;28;20500;-77
2021/12/09 08:09:28;;;;;;;11.77;4.75;;;;;;;;;;5007850;28;20034;-76
2021/12/09 08:11:53;;;;;;;13.93;4.18;;;;;;;;;;5008580;28;20061;-75
2021/12/09 08:14:21;;;;;;;9.27;4.25;;;;;;;;;;5007832;28;20030;-77
2021/12/09 08:16:56;;;;;;;11.13;4.07;;;;;;;;;;5007554;28;20532;-77
2021/12/09 08:19:22;;;;;;;9.57;3.30;;;;;;;;;;5011505;28;20044;-77
2021/12/09 08:21:50;;;;;;;12.35;3.17;;;;;;;;;;5008572;28;20033;-77
2021/12/09 08:24:16;;;;;;;8.82;3.78;;;;;;;;;;5010196;28;20510;-77
2021/12/09 08:26:41;;;;;;;9.23;3.30;;;;;;;;;;5008792;28;20115;-76
2021/12/09 08:29:07;;;;;;;7.53;3.58;;;;;;;;;;5009092;28;20108;-77
2021/12/09 08:31:34;;;;;;;7.85;4.38;;;;;;;;;;5006864;28;20108;-77
2021/12/09 08:34:05;;;;;;;10.63;4.20;;;;;;;;;;5008448;28;20022;-76
2021/12/09 08:36:32;;;;;;;14.13;4.65;;;;;;;;;;5009523;28;20036;-76
2021/12/09 08:39:00;;;;;;;11.95;3.83;;;;;;;;;;5009229;28;20049;-76
2021/12/09 08:41:26;;;;;;;10.48;3.97;;;;;;;;;;5007507;28;20552;-77
2021/12/09 08:43:51;;;;;;;7.57;4.28;;;;;;;;;;5005307;28;20026;-77
2021/12/09 08:46:17;;;;;;;9.40;3.70;;;;;;;;;;5006688;28;20036;-77
2021/12/09 08:48:44;;;;;;;13.32;4.22;;;;;;;;;;5010018;28;20030;-76
2021/12/09 08:51:10;;;;;;;8.70;4.15;;;;;;;;;;5007245;28;20164;-75
2021/12/09 08:53:35;;;;;;;8.50;4.00;;;;;;;;;;5006275;28;20034;-77
2021/12/09 08:56:01;;;;;;;9.70;4.35;;;;;;;;;;5006341;28;20030;-76
2021/12/09 08:58:30;;;;;;;12.23;5.38;;;;;;;;;;5007896;28;20026;-75
2021/12/09 09:00:57;;;;;;;9.43;4.27;;;;;;;;;;5008822;28;20029;-76
2021/12/09 09:03:27;;;;;;;9.77;3.60;;;;;;;;;;5008068;28;21403;-77
2021/12/09 09:05:53;;;;;;;9.15;3.45;;;;;;;;;;5010533;28;20022;-77
2021/12/09 09:08:19;;;;;;;11.18;3.22;;;;;;;;;;5005948;28;20041;-77
2021/12/09 09:10:45;;;;;;;8.68;3.10;;;;;;;;;;5007876;28;20744;-77
2021/12/09 09:13:12;;;;;;;11.20;3.22;;;;;;;;;;5009221;28;20132;-77
2021/12/09 09:15:39;;;;;;;8.80;2.92;;;;;;;;;;5004550;28;20429;-77
2021/12/09 09:18:05;;;;;;;4.47;2.65;;;;;;;;;;5009005;28;20028;-76
2021/12/09 09:20:34;;;;;;;6.80;3.13;;;;;;;;;;5008427;28;20124;-75
2021/12/09 09:23:00;;;;;;;7.00;3.00;;;;;;;;;;5006419;28;20447;-76
2021/12/09 09:25:29;;;;;;;4.78;2.83;;;;;;;;;;5010419;28;20095;-77
2021/12/09 09:27:59;;;;;;;5.65;3.25;;;;;;;;;;5005962;28;20030;-77
2021/12/09 09:30:33;;;;;;;7.57;2.88;;;;;;;;;;5008825;28;20038;-76
2021/12/09 09:32:58;;;;;;;7.18;3.38;;;;;;;;;;5002882;28;20107;-76
2021/12/09 09:35:24;;;;;;;4.78;2.88;;;;;;;;;;5008281;28;20132;-77
2021/12/09 09:37:49;;;;;;;4.65;3.08;;;;;;;;;;5007977;28;20199;-76
2021/12/09 09:40:27;;;;;;;5.35;3.33;;;;;;;;;;5007637;28;20032;-75
2021/12/09 09:43:00;;;;;;;9.55;3.33;;;;;;;;;;5007029;28;20029;-76
2021/12/09 09:45:26;;;;;;;6.03;3.58;;;;;;;;;;5009868;28;20025;-76
2021/12/09 09:47:53;;;;;;;7.32;3.33;;;;;;;;;;5007564;28;20029;-77
2021/12/09 09:50:19;;;;;;;10.88;4.22;;;;;;;;;;5005055;28;20024;-76
2021/12/09 09:52:45;;;;;;;6.68;3.67;;;;;;;;;;5010235;28;20066;-76
2021/12/09 09:55:14;;;;;;;8.18;3.60;;;;;;;;;;5009543;28;20048;-77
2021/12/09 09:57:40;;;;;;;9.18;3.17;;;;;;;;;;5008728;28;20030;-76
2021/12/09 10:00:09;;;;;;;5.78;3.00;;;;;;;;;;5005275;28;20036;-76
2021/12/09 10:02:35;;;;;;;;;;;;;;;;;;5010918;28;20026;-75
2021/12/09 10:05:02;;;;;;;8.20;3.25;;;;;;;;;;5006708;28;20124;-76
2021/12/09 10:07:30;;;;;;;6.63;3.05;;;;;;;;;;5007654;28;20036;-77
2021/12/09 10:09:56;;;;;;;17.08;5.85;;;;;;;;;;5006427;28;20065;-75
2021/12/09 10:12:22;;;;;;;7.60;3.08;;;;;;;;;;5006234;28;20057;-75
2021/12/09 10:14:50;;;;;;;6.03;3.33;;;;;;;;;;5005391;28;20184;-78
2021/12/09 10:17:19;;;;;;;7.97;3.25;;;;;;;;;;5005541;28;20084;-76
2021/12/09 10:19:47;;;;;;;7.50;2.88;;;;;;;;;;5008453;28;20072;-77
2021/12/09 10:22:16;;;;;;;5.70;3.58;;;;;;;;;;5005857;28;20069;-77
2021/12/09 10:24:44;;;;;;;6.63;3.40;;;;;;;;;;5006069;28;20075;-76
2021/12/09 10:27:23;;;;;;;9.00;3.28;;;;;;;;;;5005030;28;20065;-76
2021/12/09 10:29:49;;;;;;;9.57;3.45;;;;;;;;;;5009764;28;20057;-77
2021/12/09 10:32:24;;;;;;;7.72;3.53;;;;;;;;;;5006252;28;20033;-77
2021/12/09 10:34:49;;;;;;;8.55;3.40;;;;;;;;;;5006435;28;20092;-77
2021/12/09 10:37:21;;;;;;;9.05;3.30;;;;;;;;;;5005323;28;20034;-77
2021/12/09 10:39:55;;;;;;;10.90;4.22;;;;;;;;;;5007000;28;20112;-77
2021/12/09 10:42:28;;;;;;;16.10;5.50;;;;;;;;;;5006216;28;20335;-77
2021/12/09 10:45:07;;;;;;;9.07;4.70;;;;;;;;;;5001065;28;20033;-77
2021/12/09 10:47:46;;;;;;;8.77;4.28;;;;;;;;;;5001521;28;20072;-76
2021/12/09 10:50:21;;;;;;;6.28;3.97;;;;;;;;;;5006235;28;20925;-77
2021/12/09 10:53:18;;;;;;;10.60;4.03;;;;;;;;;;5005610;28;20151;-76
2021/12/09 10:55:45;;;;;;;7.70;4.05;;;;;;;;;;5009050;28;20056;-77
2021/12/09 10:58:13;;;;;;;8.82;4.10;;;;;;;;;;5006522;28;20486;-76
2021/12/09 11:00:40;;;;;;;11.82;4.63;;;;;;;;;;5008790;28;20081;-77
2021/12/09 11:03:28;;;;;;;11.20;4.82;;;;;;;;;;5008537;28;20051;-77
2021/12/09 11:06:06;;;;;;;12.93;6.03;;;;;;;;;;5002432;28;20394;-76
2021/12/09 11:08:33;;;;;;;11.23;5.25;;;;;;;;;;5006993;28;20117;-78
2021/12/09 11:11:05;;;;;;;10.35;5.30;;;;;;;;;;5005992;28;20026;-77
2021/12/09 11:13:51;;;;;;;9.15;5.30;;;;;;;;;;5005439;28;20389;-77
2021/12/09 11:16:29;;;;;;;8.27;5.38;;;;;;;;;;5001441;28;20029;-76
2021/12/09 11:19:06;;;;;;;7.57;4.20;;;;;;;;;;5005172;28;20034;-77
2021/12/09 11:21:39;;;;;;;10.23;5.03;;;;;;;;;;5021692;28;20033;-77
2021/12/09 11:24:18;;;;;;;10.05;4.88;;;;;;;;;;5009379;28;20029;-77
2021/12/09 11:26:59;;;;;;;10.75;4.80;;;;;;;;;;5008720;28;20026;-77
2021/12/09 11:29:38;;;;;;;12.85;6.13;;;;;;;;;;5008601;28;20056;-78
2021/12/09 11:32:43;;;;;;;12.70;5.63;;;;;;;;;;5011954;28;20025;-77
2021/12/09 11:35:18;;;;;;;8.40;4.45;;;;;;;;;;5008313;28;20576;-77
2021/12/09 11:40:38;;;;;;;8.25;5.18;;;;;;;;;;5008888;28;20026;-77
2021/12/09 11:43:06;;;;;;;10.13;5.07;;;;;;;;;;5007379;28;20038;-78
2021/12/09 11:45:52;;;;;;;9.35;4.60;;;;;;;;;;5007151;28;20022;-77
2021/12/09 11:48:20;;;;;;;7.65;4.72;;;;;;;;;;5026509;28;20049;-78
2021/12/09 11:50:49;;;;;;;8.98;4.80;;;;;;;;;;5008642;28;20490;-76
2021/12/09 11:53:20;;;;;;;7.50;4.82;;;;;;;;;;5010830;28;20038;-77
2021/12/09 11:56:09;;;;;;;9.60;4.55;;;;;;;;;;5007072;28;20030;-77
2021/12/09 11:58:43;;;;;;;17.90;5.60;;;;;;;;;;5006091;28;20113;-77
2021/12/09 12:18:33;;;;;;;9.50;5.70;;;;;;;;;;5012735;28;20025;-78
2021/12/09 12:26:58;;;;;;;9.43;4.50;;;;;;;;;;5009382;28;20038;-76
2021/12/09 12:30:29;;;;;;;15.05;6.70;;;;;;;;;;5006073;28;20025;-77
2021/12/09 12:40:21;;;;;;;13.55;5.25;;;;;;;;;;5008807;28;20033;-76
2021/12/09 12:51:27;;;;;;;7.97;4.30;;;;;;;;;;4981469;28;20037;-76
2021/12/09 12:54:36;;;;;;;8.38;3.90;;;;;;;;;;5008030;28;20084;-77
2021/12/09 12:57:12;;;;;;;10.40;4.70;;;;;;;;;;5010113;28;20029;-76
2021/12/09 12:59:40;;;;;;;10.05;4.25;;;;;;;;;;5012422;28;20033;-76
2021/12/09 13:02:15;;;;;;;8.07;4.47;;;;;;;;;;5007835;28;20033;-77
2021/12/09 13:11:21;;;;;;;7.90;3.97;;;;;;;;;;5011890;28;20013;-77
2021/12/09 13:16:15;;;;;;;7.15;3.13;;;;;;;;;;5009727;28;20057;-78
2021/12/09 13:21:51;;;;;;;5.43;2.80;;;;;;;;;;5010730;28;20037;-77
2021/12/09 13:32:22;;;;;;;11.55;4.50;;;;;;;;;;5010833;28;20026;-78
2021/12/09 13:35:04;;;;;;;9.30;3.70;;;;;;;;;;5010631;28;20085;-77
2021/12/09 13:37:51;;;;;;;6.40;3.97;;;;;;;;;;5010769;28;20040;-78
2021/12/09 13:40:24;;;;;;;9.13;3.80;;;;;;;;;;5010030;28;20057;-78
2021/12/09 13:46:07;;;;;;;7.65;3.22;;;;;;;;;;5006332;28;20080;-75
2021/12/09 13:48:44;;;;;;;6.20;3.35;;;;;;;;;;5010235;28;20049;-78
2021/12/09 13:51:30;;;;;;;5.20;2.67;;;;;;;;;;5007550;28;20018;-77
2021/12/09 13:54:29;;;;;;;4.80;2.80;;;;;;;;;;5009895;28;20041;-77
2021/12/09 13:57:00;;;;;;;5.55;2.60;;;;;;;;;;5008944;28;20104;-77
2021/12/09 13:59:28;;;;;;;5.43;2.60;;;;;;;;;;5009526;28;20025;-78
2021/12/09 14:01:55;;;;;;;7.60;2.85;;;;;;;;;;5007063;28;20040;-77
2021/12/09 14:04:23;;;;;;;6.68;2.90;;;;;;;;;;5010748;28;20389;-77
2021/12/09 14:06:59;;;;;;;5.15;2.90;;;;;;;;;;5012005;28;20117;-77
2021/12/09 14:09:27;;;;;;;15.27;8.18;;;;;;;;;;5016796;28;20041;-77
2021/12/09 14:11:53;;;;;;;6.50;2.97;;;;;;;;;;5017859;28;20120;-77
2021/12/09 14:14:25;;;;;;;10.32;3.70;;;;;;;;;;5014115;28;20037;-78
2021/12/09 14:17:03;;;;;;;6.57;3.10;;;;;;;;;;5009442;28;20095;-77
2021/12/09 14:21:58;;;;;;;7.32;3.90;;;;;;;;;;5009920;28;20841;-77
2021/12/09 14:24:31;;;;;;;16.33;4.38;;;;;;;;;;5011027;28;20032;-76
2021/12/09 14:27:09;;;;;;;8.32;4.38;;;;;;;;;;5013513;28;20125;-78
2021/12/09 14:29:35;;;;;;;9.85;4.25;;;;;;;;;;5009639;28;20026;-77
2021/12/09 14:32:03;;;;;;;11.30;3.20;;;;;;;;;;5009198;28;20033;-77
2021/12/09 14:34:45;;;;;;;14.10;4.30;;;;;;;;;;5008872;28;20041;-77
2021/12/09 14:37:12;;;;;;;10.93;2.85;;;;;;;;;;5008580;28;20033;-77
2021/12/09 14:39:39;;;;;;;11.68;3.63;;;;;;;;;;5008408;28;20168;-77
2021/12/09 14:42:07;;;;;;;9.05;3.20;;;;;;;;;;5007883;28;20033;-77
2021/12/09 14:44:33;;;;;;;5.93;2.78;;;;;;;;;;5009488;28;20026;-78
2021/12/09 14:47:16;;;;;;;11.27;3.28;;;;;;;;;;5010323;28;20083;-78
2021/12/09 14:49:50;;;;;;;7.93;3.30;;;;;;;;;;5007108;28;20029;-77
2021/12/09 14:52:31;;;;;;;11.45;3.95;;;;;;;;;;5009940;28;20117;-78
2021/12/09 14:55:18;;;;;;;9.40;4.22;;;;;;;;;;5012715;28;20022;-77
2021/12/09 14:57:59;;;;;;;10.55;3.88;;;;;;;;;;5011386;28;20374;-78
2021/12/09 15:00:45;;;;;;;9.45;3.40;;;;;;;;;;5010424;28;20445;-76
2021/12/09 15:03:20;;;;;;;9.63;3.65;;;;;;;;;;5008270;28;20030;-76
2021/12/09 15:05:52;;;;;;;12.25;3.95;;;;;;;;;;5008418;28;20151;-77
2021/12/09 15:08:21;;;;;;;9.43;3.28;;;;;;;;;;5007919;28;20040;-77
2021/12/09 15:10:52;;;;;;;7.43;3.58;;;;;;;;;;5011206;28;20128;-76
2021/12/09 15:13:20;;;;;;;7.25;2.70;;;;;;;;;;5010015;28;20045;-77
2021/12/09 15:15:46;;;;;;;9.18;3.13;;;;;;;;;;5007057;28;20092;-78
2021/12/09 15:18:12;;;;;;;12.90;4.70;;;;;;;;;;5010627;28;20397;-78
2021/12/09 15:20:41;;;;;;;9.75;3.25;;;;;;;;;;5007689;28;20029;-79
2021/12/09 15:23:22;;;;;;;13.07;3.47;;;;;;;;;;5006531;28;20349;-78
2021/12/09 15:25:48;;;;;;;9.18;3.80;;;;;;;;;;5008494;28;20121;-78
2021/12/09 15:28:13;;;;;;;12.63;4.53;;;;;;;;;;5008775;28;20100;-77
2021/12/09 15:31:00;;;;;;;12.82;4.20;;;;;;;;;;5009487;28;20033;-77
2021/12/09 15:33:45;;;;;;;7.38;2.67;;;;;;;;;;5010391;28;20055;-78
2021/12/09 15:36:14;;;;;;;15.32;4.05;;;;;;;;;;5009559;28;20095;-78
2021/12/09 15:38:44;;;;;;;5.47;2.08;;;;;;;;;;5008534;28;20034;-79
2021/12/09 15:41:10;;;;;;;;;;;;;;;;;;5011228;28;20088;-79
2021/12/09 15:43:36;;;;;;;6.28;3.20;;;;;;;;;;5010347;28;19948;-78
2021/12/09 15:46:12;;;;;;;6.50;3.35;;;;;;;;;;5010931;28;20044;-79
2021/12/09 15:49:50;;;;;;;8.45;3.08;;;;;;;;;;5123960;27;20504;-59
2021/12/09 15:52:18;;;;;;;9.55;2.90;;;;;;;;;;5102955;28;20051;-60
2021/12/09 15:54:52;;;;;;;9.15;2.88;;;;;;;;;;5101335;28;20077;-59
2021/12/09 15:57:22;;;;;;;6.47;2.53;;;;;;;;;;5101004;28;20095;-60
2021/12/09 15:59:47;;;;;;;;;;;;;;;;;;5104930;28;20035;-59
2021/12/09 16:02:17;;;;;;;15.50;7.28;;;;;;;;;;5099631;28;20359;-59